createdAt,value
2018-02-14T00:00:44.006Z,999.85
2018-02-14T00:01:44.017Z,999.83
2018-02-14T00:02:44.033Z,999.84
2018-02-14T00:03:44.052Z,999.85
2018-02-14T00:04:44.049Z,999.83
2018-02-14T00:05:44.065Z,999.86
2018-02-14T00:06:44.080Z,999.84
2018-02-14T00:07:44.093Z,999.87
2018-02-14T00:08:44.106Z,999.83
2018-02-14T00:09:44.122Z,999.84
2018-02-14T00:10:44.128Z,999.84
2018-02-14T00:11:44.155Z,999.84
2018-02-14T00:12:44.156Z,999.84
2018-02-14T00:13:44.169Z,999.83
2018-02-14T00:14:44.183Z,999.84
2018-02-14T00:15:44.189Z,999.84
2018-02-14T00:16:44.205Z,999.84
2018-02-14T00:17:44.221Z,999.89
2018-02-14T00:18:44.229Z,999.85
2018-02-14T00:19:44.244Z,999.87
2018-02-14T00:20:44.255Z,999.86
2018-02-14T00:21:44.267Z,999.88
2018-02-14T00:22:44.280Z,999.90
2018-02-14T00:23:44.295Z,999.91
2018-02-14T00:24:44.307Z,999.93
2018-02-14T00:25:44.318Z,999.96
2018-02-14T00:26:44.331Z,999.90
2018-02-14T00:27:44.342Z,999.91
2018-02-14T00:28:44.355Z,999.97
2018-02-14T00:29:44.367Z,1000.00
2018-02-14T00:30:44.383Z,999.94
2018-02-14T00:31:44.393Z,999.98
2018-02-14T00:32:44.428Z,999.99
2018-02-14T00:33:44.415Z,1000.01
2018-02-14T00:34:44.432Z,1000.02
2018-02-14T00:35:44.441Z,1000.00
2018-02-14T00:36:44.452Z,999.99
2018-02-14T00:37:44.469Z,999.99
2018-02-14T00:38:44.486Z,1000.01
2018-02-14T00:39:44.493Z,1000.01
2018-02-14T00:40:44.504Z,1000.04
2018-02-14T00:41:44.513Z,1000.03
2018-02-14T00:42:44.528Z,1000.04
2018-02-14T00:43:44.544Z,1000.05
2018-02-14T00:44:44.563Z,1000.06
2018-02-14T00:45:44.567Z,1000.07
2018-02-14T00:46:44.578Z,1000.12
2018-02-14T00:47:44.596Z,1000.14
2018-02-14T00:48:44.605Z,1000.11
2018-02-14T00:49:44.615Z,1000.12
2018-02-14T00:50:44.634Z,1000.10
2018-02-14T00:51:44.638Z,1000.11
2018-02-14T00:52:44.651Z,1000.15
2018-02-14T00:53:44.663Z,1000.10
2018-02-14T00:54:44.671Z,1000.10
2018-02-14T00:55:44.693Z,1000.11
2018-02-14T00:56:44.706Z,1000.12
2018-02-14T00:57:44.716Z,1000.13
2018-02-14T00:58:44.728Z,1000.10
2018-02-14T00:59:44.740Z,1000.06
2018-02-14T01:00:44.756Z,1000.07
2018-02-14T01:01:44.764Z,1000.04
2018-02-14T01:02:44.776Z,1000.03
2018-02-14T01:03:44.788Z,1000.01
2018-02-14T01:04:44.802Z,999.99
2018-02-14T01:05:44.814Z,999.97
2018-02-14T01:06:44.823Z,999.97
2018-02-14T01:07:44.836Z,999.97
2018-02-14T01:08:44.855Z,999.95
2018-02-14T01:09:44.871Z,999.87
2018-02-14T01:10:44.877Z,999.97
2018-02-14T01:11:44.889Z,999.97
2018-02-14T01:12:44.895Z,999.96
2018-02-14T01:13:44.906Z,1000.00
2018-02-14T01:14:44.964Z,999.98
2018-02-14T01:15:44.980Z,999.96
2018-02-14T01:16:44.947Z,999.95
2018-02-14T01:17:44.965Z,999.97
2018-02-14T01:18:44.970Z,999.93
2018-02-14T01:19:44.984Z,999.92
2018-02-14T01:20:44.996Z,999.92
2018-02-14T01:21:45.006Z,999.90
2018-02-14T01:22:45.019Z,999.91
2018-02-14T01:23:45.032Z,999.91
2018-02-14T01:24:45.046Z,999.95
2018-02-14T01:25:45.054Z,999.93
2018-02-14T01:26:45.066Z,1000.01
2018-02-14T01:27:45.079Z,999.98
2018-02-14T01:28:45.098Z,1000.00
2018-02-14T01:29:45.123Z,1000.03
2018-02-14T01:30:45.118Z,1000.02
2018-02-14T01:31:45.121Z,1000.02
2018-02-14T01:32:45.133Z,1000.05
2018-02-14T01:33:45.175Z,1000.06
2018-02-14T01:34:45.162Z,1000.05
2018-02-14T01:35:45.183Z,1000.03
2018-02-14T01:36:45.190Z,1000.04
2018-02-14T01:37:45.210Z,1000.05
2018-02-14T01:38:45.223Z,1000.08
2018-02-14T01:39:45.226Z,1000.07
2018-02-14T01:40:45.238Z,1000.07
2018-02-14T01:41:45.249Z,1000.11
2018-02-14T01:42:45.261Z,1000.08
2018-02-14T01:43:45.301Z,1000.05
2018-02-14T01:44:45.290Z,1000.07
2018-02-14T01:45:45.301Z,1000.09
2018-02-14T01:46:45.308Z,1000.13
2018-02-14T01:47:45.322Z,1000.11
2018-02-14T01:48:45.340Z,1000.13
2018-02-14T01:49:45.352Z,1000.10
2018-02-14T01:50:45.356Z,1000.12
2018-02-14T01:51:45.377Z,1000.08
2018-02-14T01:52:45.382Z,1000.13
2018-02-14T01:53:45.397Z,1000.13
2018-02-14T01:54:45.402Z,1000.19
2018-02-14T01:55:45.420Z,1000.12
2018-02-14T01:56:45.438Z,1000.14
2018-02-14T01:57:45.445Z,1000.13
2018-02-14T01:58:45.457Z,1000.15
2018-02-14T01:59:45.469Z,1000.19
2018-02-14T02:00:45.482Z,1000.19
2018-02-14T02:01:45.493Z,1000.20
2018-02-14T02:02:45.504Z,1000.19
2018-02-14T02:03:45.516Z,1000.25
2018-02-14T02:04:45.530Z,1000.26
2018-02-14T02:05:45.539Z,1000.24
2018-02-14T02:06:45.553Z,1000.25
2018-02-14T02:07:45.586Z,1000.23
2018-02-14T02:08:45.585Z,1000.24
2018-02-14T02:09:45.591Z,1000.25
2018-02-14T02:10:45.607Z,1000.24
2018-02-14T02:11:45.613Z,1000.22
2018-02-14T02:12:45.629Z,1000.27
2018-02-14T02:13:45.639Z,1000.30
2018-02-14T02:14:45.654Z,1000.25
2018-02-14T02:15:45.667Z,1000.30
2018-02-14T02:16:45.679Z,1000.31
2018-02-14T02:17:45.687Z,1000.30
2018-02-14T02:18:45.704Z,1000.28
2018-02-14T02:19:45.713Z,1000.27
2018-02-14T02:20:45.726Z,1000.28
2018-02-14T02:21:45.734Z,1000.29
2018-02-14T02:22:45.752Z,1000.24
2018-02-14T02:23:45.761Z,1000.27
2018-02-14T02:24:45.778Z,1000.26
2018-02-14T02:25:45.786Z,1000.27
2018-02-14T02:26:45.800Z,1000.29
2018-02-14T02:27:45.812Z,1000.29
2018-02-14T02:28:45.822Z,1000.28
2018-02-14T02:29:45.834Z,1000.29
2018-02-14T02:30:45.847Z,1000.32
2018-02-14T02:31:45.862Z,1000.34
2018-02-14T02:32:45.872Z,1000.32
2018-02-14T02:33:45.883Z,1000.38
2018-02-14T02:34:45.927Z,1000.38
2018-02-14T02:35:45.909Z,1000.42
2018-02-14T02:36:45.920Z,1000.39
2018-02-14T02:37:45.933Z,1000.45
2018-02-14T02:38:45.946Z,1000.43
2018-02-14T02:39:45.956Z,1000.45
2018-02-14T02:40:45.970Z,1000.43
2018-02-14T02:41:45.979Z,1000.46
2018-02-14T02:42:45.991Z,1000.48
2018-02-14T02:43:46.007Z,1000.46
2018-02-14T02:44:46.028Z,1000.48
2018-02-14T02:45:46.029Z,1000.46
2018-02-14T02:46:46.053Z,1000.47
2018-02-14T02:47:46.050Z,1000.52
2018-02-14T02:48:46.067Z,1000.53
2018-02-14T02:49:46.108Z,1000.47
2018-02-14T02:50:46.092Z,1000.51
2018-02-14T02:51:46.102Z,1000.49
2018-02-14T02:52:46.113Z,1000.49
2018-02-14T02:53:46.132Z,1000.50
2018-02-14T02:54:46.135Z,1000.48
2018-02-14T02:55:46.147Z,1000.52
2018-02-14T02:56:46.162Z,1000.50
2018-02-14T02:57:46.174Z,1000.52
2018-02-14T02:58:46.188Z,1000.53
2018-02-14T02:59:46.197Z,1000.52
2018-02-14T03:00:46.210Z,1000.49
2018-02-14T03:01:46.219Z,1000.51
2018-02-14T03:02:46.236Z,1000.56
2018-02-14T03:03:46.245Z,1000.51
2018-02-14T03:04:46.258Z,1000.54
2018-02-14T03:05:46.268Z,1000.62
2018-02-14T03:06:46.281Z,1000.58
2018-02-14T03:07:46.297Z,1000.57
2018-02-14T03:08:46.311Z,1000.60
2018-02-14T03:09:46.316Z,1000.57
2018-02-14T03:10:46.330Z,1000.58
2018-02-14T03:11:46.340Z,1000.58
2018-02-14T03:12:46.354Z,1000.56
2018-02-14T03:13:46.364Z,1000.61
2018-02-14T03:14:46.376Z,1000.56
2018-02-14T03:15:46.391Z,1000.62
2018-02-14T03:16:46.403Z,1000.63
2018-02-14T03:17:46.406Z,1000.63
2018-02-14T03:18:46.425Z,1000.61
2018-02-14T03:19:46.438Z,1000.60
2018-02-14T03:20:46.450Z,1000.63
2018-02-14T03:21:46.457Z,1000.64
2018-02-14T03:22:46.473Z,1000.65
2018-02-14T03:23:46.490Z,1000.66
2018-02-14T03:24:46.501Z,1000.70
2018-02-14T03:25:46.508Z,1000.66
2018-02-14T03:26:46.552Z,1000.70
2018-02-14T03:27:46.531Z,1000.72
2018-02-14T03:28:46.547Z,1000.72
2018-02-14T03:29:46.556Z,1000.76
2018-02-14T03:30:46.567Z,1000.73
2018-02-14T03:31:46.580Z,1000.75
2018-02-14T03:32:46.589Z,1000.75
2018-02-14T03:33:46.599Z,1000.75
2018-02-14T03:34:46.614Z,1000.74
2018-02-14T03:35:46.626Z,1000.76
2018-02-14T03:36:46.637Z,1000.79
2018-02-14T03:37:46.652Z,1000.77
2018-02-14T03:38:46.659Z,1000.81
2018-02-14T03:39:46.669Z,1000.82
2018-02-14T03:40:46.682Z,1000.84
2018-02-14T03:41:46.694Z,1000.86
2018-02-14T03:42:46.710Z,1000.82
2018-02-14T03:43:46.718Z,1000.84
2018-02-14T03:44:46.729Z,1000.86
2018-02-14T03:45:46.748Z,1000.84
2018-02-14T03:46:46.756Z,1000.87
2018-02-14T03:47:46.765Z,1000.89
2018-02-14T03:48:46.777Z,1000.87
2018-02-14T03:49:46.788Z,1000.89
2018-02-14T03:50:46.806Z,1000.92
2018-02-14T03:51:46.811Z,1000.94
2018-02-14T03:52:46.824Z,1000.98
2018-02-14T03:53:46.858Z,1000.99
2018-02-14T03:54:46.847Z,1000.98
2018-02-14T03:55:46.861Z,1001.02
2018-02-14T03:56:46.870Z,1000.98
2018-02-14T03:57:46.882Z,1001.03
2018-02-14T03:58:46.895Z,1001.06
2018-02-14T03:59:46.912Z,1001.05
2018-02-14T04:00:46.917Z,1001.06
2018-02-14T04:01:46.928Z,1001.05
2018-02-14T04:02:46.939Z,1001.08
2018-02-14T04:03:46.955Z,1001.07
2018-02-14T04:04:46.966Z,1001.09
2018-02-14T04:05:46.976Z,1001.09
2018-02-14T04:06:46.986Z,1001.13
2018-02-14T04:07:46.998Z,1001.15
2018-02-14T04:08:47.011Z,1001.13
2018-02-14T04:09:47.066Z,1001.18
2018-02-14T04:10:47.032Z,1001.20
2018-02-14T04:11:47.051Z,1001.20
2018-02-14T04:12:47.090Z,1001.17
2018-02-14T04:13:47.067Z,1001.16
2018-02-14T04:14:47.077Z,1001.22
2018-02-14T04:15:47.116Z,1001.20
2018-02-14T04:16:47.101Z,1001.22
2018-02-14T04:17:47.116Z,1001.26
2018-02-14T04:18:47.155Z,1001.27
2018-02-14T04:19:47.132Z,1001.29
2018-02-14T04:20:47.143Z,1001.32
2018-02-14T04:21:47.183Z,1001.34
2018-02-14T04:22:47.168Z,1001.33
2018-02-14T04:23:47.203Z,1001.35
2018-02-14T04:24:47.209Z,1001.36
2018-02-14T04:25:47.213Z,1001.37
2018-02-14T04:26:47.217Z,1001.37
2018-02-14T04:27:47.247Z,1001.39
2018-02-14T04:28:47.239Z,1001.39
2018-02-14T04:29:47.277Z,1001.42
2018-02-14T04:30:47.265Z,1001.48
2018-02-14T04:31:47.276Z,1001.47
2018-02-14T04:32:47.296Z,1001.49
2018-02-14T04:33:47.297Z,1001.50
2018-02-14T04:34:47.312Z,1001.52
2018-02-14T04:35:47.320Z,1001.55
2018-02-14T04:36:47.333Z,1001.56
2018-02-14T04:37:47.341Z,1001.59
2018-02-14T04:38:47.349Z,1001.63
2018-02-14T04:39:47.367Z,1001.63
2018-02-14T04:40:47.378Z,1001.62
2018-02-14T04:41:47.398Z,1001.62
2018-02-14T04:42:47.402Z,1001.64
2018-02-14T04:43:47.417Z,1001.62
2018-02-14T04:44:47.426Z,1001.65
2018-02-14T04:45:47.445Z,1001.62
2018-02-14T04:46:47.447Z,1001.65
2018-02-14T04:47:47.457Z,1001.65
2018-02-14T04:48:47.478Z,1001.69
2018-02-14T04:49:47.487Z,1001.71
2018-02-14T04:50:47.500Z,1001.69
2018-02-14T04:51:47.504Z,1001.71
2018-02-14T04:52:47.516Z,1001.71
2018-02-14T04:53:47.528Z,1001.70
2018-02-14T04:54:47.543Z,1001.72
2018-02-14T04:55:47.568Z,1001.75
2018-02-14T04:56:47.564Z,1001.76
2018-02-14T04:57:47.576Z,1001.74
2018-02-14T04:58:47.579Z,1001.76
2018-02-14T04:59:47.591Z,1001.75
2018-02-14T05:00:47.631Z,1001.78
2018-02-14T05:01:47.653Z,1001.80
2018-02-14T05:02:47.630Z,1001.83
2018-02-14T05:03:47.647Z,1001.86
2018-02-14T05:04:47.661Z,1001.89
2018-02-14T05:05:47.662Z,1001.88
2018-02-14T05:06:47.675Z,1001.90
2018-02-14T05:07:47.691Z,1001.91
2018-02-14T05:08:47.701Z,1001.92
2018-02-14T05:09:47.709Z,1001.95
2018-02-14T05:10:47.721Z,1001.93
2018-02-14T05:11:47.735Z,1001.94
2018-02-14T05:12:47.746Z,1001.95
2018-02-14T05:13:47.755Z,1001.98
2018-02-14T05:14:47.769Z,1002.00
2018-02-14T05:15:47.780Z,1001.99
2018-02-14T05:16:47.799Z,1002.05
2018-02-14T05:17:47.802Z,1002.08
2018-02-14T05:18:47.815Z,1002.06
2018-02-14T05:19:47.826Z,1002.07
2018-02-14T05:20:47.842Z,1002.10
2018-02-14T05:21:47.843Z,1002.10
2018-02-14T05:22:47.864Z,1002.12
2018-02-14T05:23:47.868Z,1002.12
2018-02-14T05:24:47.876Z,1002.13
2018-02-14T05:25:47.895Z,1002.14
2018-02-14T05:26:47.903Z,1002.13
2018-02-14T05:27:47.919Z,1002.16
2018-02-14T05:28:47.930Z,1002.18
2018-02-14T05:29:47.945Z,1002.18
2018-02-14T05:30:47.954Z,1002.12
2018-02-14T05:31:47.964Z,1002.12
2018-02-14T05:32:47.975Z,1002.16
2018-02-14T05:33:47.986Z,1002.18
2018-02-14T05:34:47.993Z,1002.17
2018-02-14T05:35:48.008Z,1002.16
2018-02-14T05:36:48.025Z,1002.16
2018-02-14T05:37:48.030Z,1002.13
2018-02-14T05:38:48.050Z,1002.21
2018-02-14T05:39:48.056Z,1002.21
2018-02-14T05:40:48.068Z,1002.22
2018-02-14T05:41:48.075Z,1002.27
2018-02-14T05:42:48.087Z,1002.26
2018-02-14T05:43:48.097Z,1002.27
2018-02-14T05:44:48.111Z,1002.30
2018-02-14T05:45:48.118Z,1002.34
2018-02-14T05:46:48.132Z,1002.33
2018-02-14T05:47:48.147Z,1002.33
2018-02-14T05:48:48.159Z,1002.32
2018-02-14T05:49:48.166Z,1002.37
2018-02-14T05:50:48.177Z,1002.36
2018-02-14T05:51:48.189Z,1002.35
2018-02-14T05:52:48.200Z,1002.41
2018-02-14T05:53:48.212Z,1002.42
2018-02-14T05:54:48.224Z,1002.42
2018-02-14T05:55:48.230Z,1002.49
2018-02-14T05:56:48.249Z,1002.48
2018-02-14T05:57:48.259Z,1002.48
2018-02-14T05:58:48.271Z,1002.50
2018-02-14T05:59:48.287Z,1002.55
2018-02-14T06:00:48.295Z,1002.58
2018-02-14T06:01:48.302Z,1002.57
2018-02-14T06:02:48.315Z,1002.62
2018-02-14T06:03:48.327Z,1002.58
2018-02-14T06:04:48.340Z,1002.59
2018-02-14T06:05:48.348Z,1002.64
2018-02-14T06:06:48.360Z,1002.70
2018-02-14T06:07:48.371Z,1002.72
2018-02-14T06:08:48.381Z,1002.77
2018-02-14T06:09:48.394Z,1002.80
2018-02-14T06:10:48.409Z,1002.79
2018-02-14T06:11:48.417Z,1002.79
2018-02-14T06:12:48.431Z,1002.80
2018-02-14T06:13:48.454Z,1002.80
2018-02-14T06:14:48.450Z,1002.84
2018-02-14T06:15:48.464Z,1002.84
2018-02-14T06:16:48.476Z,1002.85
2018-02-14T06:17:48.484Z,1002.83
2018-02-14T06:18:48.500Z,1002.92
2018-02-14T06:19:48.511Z,1002.92
2018-02-14T06:20:48.520Z,1002.95
2018-02-14T06:21:48.607Z,1002.97
2018-02-14T06:22:48.580Z,1003.03
2018-02-14T06:23:48.554Z,1003.04
2018-02-14T06:24:48.568Z,1003.05
2018-02-14T06:25:48.576Z,1003.04
2018-02-14T06:26:48.591Z,1003.06
2018-02-14T06:27:48.597Z,1003.07
2018-02-14T06:28:48.611Z,1003.10
2018-02-14T06:29:48.619Z,1003.12
2018-02-14T06:30:48.656Z,1003.18
2018-02-14T06:31:48.641Z,1003.16
2018-02-14T06:32:48.654Z,1003.21
2018-02-14T06:33:48.668Z,1003.27
2018-02-14T06:34:48.678Z,1003.26
2018-02-14T06:35:48.685Z,1003.27
2018-02-14T06:36:48.702Z,1003.35
2018-02-14T06:37:48.711Z,1003.35
2018-02-14T06:38:48.723Z,1003.42
2018-02-14T06:39:48.728Z,1003.37
2018-02-14T06:40:48.744Z,1003.38
2018-02-14T06:41:48.754Z,1003.37
2018-02-14T06:42:48.767Z,1003.41
2018-02-14T06:43:48.777Z,1003.41
2018-02-14T06:44:48.789Z,1003.45
2018-02-14T06:45:48.799Z,1003.44
2018-02-14T06:46:48.815Z,1003.50
2018-02-14T06:47:48.827Z,1003.48
2018-02-14T06:48:48.838Z,1003.54
2018-02-14T06:49:48.848Z,1003.55
2018-02-14T06:50:48.860Z,1003.59
2018-02-14T06:51:48.866Z,1003.59
2018-02-14T06:52:48.885Z,1003.55
2018-02-14T06:53:48.891Z,1003.55
2018-02-14T06:54:48.899Z,1003.59
2018-02-14T06:55:48.913Z,1003.60
2018-02-14T06:56:48.923Z,1003.57
2018-02-14T06:57:48.934Z,1003.58
2018-02-14T06:58:48.958Z,1003.61
2018-02-14T06:59:48.959Z,1003.62
2018-02-14T07:00:48.967Z,1003.62
2018-02-14T07:01:48.978Z,1003.61
2018-02-14T07:02:48.986Z,1003.64
2018-02-14T07:03:49.003Z,1003.64
2018-02-14T07:04:49.014Z,1003.62
2018-02-14T07:05:49.019Z,1003.64
2018-02-14T07:06:49.045Z,1003.64
2018-02-14T07:07:49.047Z,1003.64
2018-02-14T07:08:49.063Z,1003.63
2018-02-14T07:09:49.068Z,1003.67
2018-02-14T07:10:49.106Z,1003.68
2018-02-14T07:11:49.091Z,1003.70
2018-02-14T07:12:49.105Z,1003.68
2018-02-14T07:13:49.113Z,1003.70
2018-02-14T07:14:49.119Z,1003.67
2018-02-14T07:15:49.132Z,1003.65
2018-02-14T07:16:49.145Z,1003.70
2018-02-14T07:17:49.161Z,1003.73
2018-02-14T07:18:49.169Z,1003.68
2018-02-14T07:19:49.180Z,1003.68
2018-02-14T07:20:49.217Z,1003.70
2018-02-14T07:21:49.217Z,1003.67
2018-02-14T07:22:49.223Z,1003.71
2018-02-14T07:23:49.225Z,1003.71
2018-02-14T07:24:49.236Z,1003.71
2018-02-14T07:25:49.249Z,1003.72
2018-02-14T07:26:49.258Z,1003.70
2018-02-14T07:27:49.276Z,1003.70
2018-02-14T07:28:49.281Z,1003.70
2018-02-14T07:29:49.294Z,1003.72
2018-02-14T07:30:49.306Z,1003.73
2018-02-14T07:31:49.320Z,1003.75
2018-02-14T07:32:49.329Z,1003.73
2018-02-14T07:33:49.340Z,1003.77
2018-02-14T07:34:49.353Z,1003.72
2018-02-14T07:35:49.366Z,1003.74
2018-02-14T07:36:49.375Z,1003.75
2018-02-14T07:37:49.379Z,1003.79
2018-02-14T07:38:49.395Z,1003.77
2018-02-14T07:39:49.422Z,1003.82
2018-02-14T07:40:49.419Z,1003.81
2018-02-14T07:41:49.432Z,1003.81
2018-02-14T07:42:49.441Z,1003.80
2018-02-14T07:43:49.455Z,1003.84
2018-02-14T07:44:49.470Z,1003.89
2018-02-14T07:45:49.478Z,1003.91
2018-02-14T07:46:49.489Z,1003.93
2018-02-14T07:47:49.499Z,1003.99
2018-02-14T07:48:49.510Z,1003.98
2018-02-14T07:49:49.520Z,1003.98
2018-02-14T07:50:49.533Z,1003.99
2018-02-14T07:51:49.562Z,1004.02
2018-02-14T07:52:49.551Z,1003.99
2018-02-14T07:53:49.570Z,1004.03
2018-02-14T07:54:49.582Z,1004.01
2018-02-14T07:55:49.592Z,1004.02
2018-02-14T07:56:49.605Z,1004.01
2018-02-14T07:57:49.614Z,1004.03
2018-02-14T07:58:49.626Z,1004.02
2018-02-14T07:59:49.639Z,1003.97
2018-02-14T08:00:49.648Z,1003.99
2018-02-14T08:01:49.661Z,1003.96
2018-02-14T08:02:49.674Z,1004.00
2018-02-14T08:03:49.677Z,1003.94
2018-02-14T08:04:49.696Z,1003.95
2018-02-14T08:05:49.714Z,1003.95
2018-02-14T08:06:49.723Z,1003.97
2018-02-14T08:07:49.731Z,1003.96
2018-02-14T08:08:49.748Z,1003.97
2018-02-14T08:09:49.794Z,1004.04
2018-02-14T08:10:49.762Z,1004.02
2018-02-14T08:11:49.784Z,1004.06
2018-02-14T08:12:49.784Z,1004.06
2018-02-14T08:13:49.799Z,1004.11
2018-02-14T08:14:49.812Z,1004.09
2018-02-14T08:15:49.821Z,1004.12
2018-02-14T08:16:49.834Z,1004.14
2018-02-14T08:17:49.853Z,1004.16
2018-02-14T08:18:49.859Z,1004.17
2018-02-14T08:19:49.870Z,1004.20
2018-02-14T08:20:49.885Z,1004.20
2018-02-14T08:21:49.888Z,1004.21
2018-02-14T08:22:49.941Z,1004.21
2018-02-14T08:23:49.921Z,1004.23
2018-02-14T08:24:49.930Z,1004.24
2018-02-14T08:25:49.942Z,1004.25
2018-02-14T08:26:49.954Z,1004.29
2018-02-14T08:27:49.990Z,1004.24
2018-02-14T08:28:49.981Z,1004.26
2018-02-14T08:29:49.988Z,1004.31
2018-02-14T08:30:50.001Z,1004.27
2018-02-14T08:31:50.007Z,1004.23
2018-02-14T08:32:50.018Z,1004.24
2018-02-14T08:33:50.037Z,1004.23
2018-02-14T08:34:50.062Z,1004.28
2018-02-14T08:35:50.063Z,1004.25
2018-02-14T08:36:50.072Z,1004.28
2018-02-14T08:37:50.091Z,1004.28
2018-02-14T08:38:50.100Z,1004.27
2018-02-14T08:39:50.108Z,1004.30
2018-02-14T08:40:50.114Z,1004.34
2018-02-14T08:41:50.135Z,1004.35
2018-02-14T08:42:50.142Z,1004.33
2018-02-14T08:43:50.156Z,1004.38
2018-02-14T08:44:50.167Z,1004.38
2018-02-14T08:45:50.180Z,1004.38
2018-02-14T08:46:50.192Z,1004.36
2018-02-14T08:47:50.201Z,1004.34
2018-02-14T08:48:50.216Z,1004.33
2018-02-14T08:49:50.229Z,1004.34
2018-02-14T08:50:50.296Z,1004.34
2018-02-14T08:51:50.255Z,1004.34
2018-02-14T08:52:50.266Z,1004.31
2018-02-14T08:53:50.272Z,1004.33
2018-02-14T08:54:50.288Z,1004.34
2018-02-14T08:55:50.301Z,1004.38
2018-02-14T08:56:50.316Z,1004.36
2018-02-14T08:57:50.324Z,1004.39
2018-02-14T08:58:50.355Z,1004.38
2018-02-14T08:59:50.345Z,1004.42
2018-02-14T09:00:50.362Z,1004.39
2018-02-14T09:01:50.373Z,1004.40
2018-02-14T09:02:50.387Z,1004.43
2018-02-14T09:03:50.401Z,1004.40
2018-02-14T09:04:50.415Z,1004.41
2018-02-14T09:05:50.426Z,1004.40
2018-02-14T09:06:50.440Z,1004.39
2018-02-14T09:07:50.451Z,1004.38
2018-02-14T09:08:50.466Z,1004.46
2018-02-14T09:09:50.466Z,1004.45
2018-02-14T09:10:50.489Z,1004.46
2018-02-14T09:11:50.493Z,1004.50
2018-02-14T09:12:50.512Z,1004.52
2018-02-14T09:13:50.525Z,1004.51
2018-02-14T09:14:50.538Z,1004.48
2018-02-14T09:15:50.547Z,1004.53
2018-02-14T09:16:50.560Z,1004.54
2018-02-14T09:17:50.582Z,1004.56
2018-02-14T09:18:50.582Z,1004.59
2018-02-14T09:19:50.605Z,1004.61
2018-02-14T09:20:50.610Z,1004.63
2018-02-14T09:21:50.622Z,1004.63
2018-02-14T09:22:50.640Z,1004.68
2018-02-14T09:23:50.649Z,1004.64
2018-02-14T09:24:50.661Z,1004.65
2018-02-14T09:25:50.677Z,1004.69
2018-02-14T09:26:50.683Z,1004.67
2018-02-14T09:27:50.695Z,1004.68
2018-02-14T09:28:50.724Z,1004.70
2018-02-14T09:29:50.720Z,1004.69
2018-02-14T09:30:50.737Z,1004.67
2018-02-14T09:31:50.750Z,1004.66
2018-02-14T09:32:50.760Z,1004.66
2018-02-14T09:33:50.778Z,1004.63
2018-02-14T09:34:50.790Z,1004.61
2018-02-14T09:35:50.800Z,1004.63
2018-02-14T09:36:50.818Z,1004.66
2018-02-14T09:37:50.826Z,1004.64
2018-02-14T09:38:50.840Z,1004.64
2018-02-14T09:39:50.853Z,1004.60
2018-02-14T09:40:50.867Z,1004.61
2018-02-14T09:41:50.876Z,1004.58
2018-02-14T09:42:50.890Z,1004.62
2018-02-14T09:43:50.905Z,1004.63
2018-02-14T09:44:50.918Z,1004.61
2018-02-14T09:45:50.931Z,1004.58
2018-02-14T09:46:50.942Z,1004.63
2018-02-14T09:47:50.960Z,1004.63
2018-02-14T09:48:50.970Z,1004.64
2018-02-14T09:49:50.983Z,1004.68
2018-02-14T09:50:50.998Z,1004.65
2018-02-14T09:51:51.011Z,1004.68
2018-02-14T09:52:51.025Z,1004.67
2018-02-14T09:53:51.035Z,1004.68
2018-02-14T09:54:51.050Z,1004.72
2018-02-14T09:55:51.067Z,1004.73
2018-02-14T09:56:51.076Z,1004.74
2018-02-14T09:57:51.084Z,1004.72
2018-02-14T09:58:51.103Z,1004.76
2018-02-14T09:59:51.115Z,1004.77
2018-02-14T10:00:51.131Z,1004.81
2018-02-14T10:01:51.186Z,1004.77
2018-02-14T10:02:51.154Z,1004.76
2018-02-14T10:03:51.168Z,1004.77
2018-02-14T10:04:51.185Z,1004.80
2018-02-14T10:05:51.270Z,1004.85
2018-02-14T10:06:51.210Z,1004.88
2018-02-14T10:07:51.226Z,1004.90
2018-02-14T10:08:51.243Z,1004.89
2018-02-14T10:09:51.252Z,1004.93
2018-02-14T10:10:51.271Z,1004.92
2018-02-14T10:11:51.278Z,1004.89
2018-02-14T10:12:51.293Z,1004.93
2018-02-14T10:13:51.308Z,1004.89
2018-02-14T10:14:51.321Z,1004.91
2018-02-14T10:15:51.335Z,1004.99
2018-02-14T10:16:51.346Z,1004.98
2018-02-14T10:17:51.355Z,1005.02
2018-02-14T10:18:51.373Z,1004.97
2018-02-14T10:19:51.393Z,1005.05
2018-02-14T10:20:51.405Z,1005.03
2018-02-14T10:21:51.416Z,1005.07
2018-02-14T10:22:51.431Z,1005.02
2018-02-14T10:23:51.445Z,1005.03
2018-02-14T10:24:51.461Z,1005.06
2018-02-14T10:25:51.473Z,1005.01
2018-02-14T10:26:51.484Z,1005.06
2018-02-14T10:27:51.503Z,1005.03
2018-02-14T10:28:51.515Z,1005.04
2018-02-14T10:29:51.526Z,1005.05
2018-02-14T10:30:51.540Z,1005.03
2018-02-14T10:31:51.556Z,1005.07
2018-02-14T10:32:51.571Z,1005.08
2018-02-14T10:33:51.580Z,1005.06
2018-02-14T10:34:51.601Z,1005.08
2018-02-14T10:35:51.612Z,1005.05
2018-02-14T10:36:51.629Z,1005.03
2018-02-14T10:37:51.640Z,1005.08
2018-02-14T10:38:51.658Z,1005.03
2018-02-14T10:39:51.671Z,1005.05
2018-02-14T10:40:51.687Z,1005.04
2018-02-14T10:41:51.697Z,1005.05
2018-02-14T10:42:51.713Z,1005.02
2018-02-14T10:43:51.725Z,1005.02
2018-02-14T10:44:51.741Z,1005.00
2018-02-14T10:45:51.753Z,1005.00
2018-02-14T10:46:51.772Z,1005.00
2018-02-14T10:47:51.785Z,1005.04
2018-02-14T10:48:51.813Z,1005.00
2018-02-14T10:49:51.812Z,1005.01
2018-02-14T10:50:51.824Z,1005.02
2018-02-14T10:51:51.840Z,1005.05
2018-02-14T10:52:51.860Z,1005.06
2018-02-14T10:53:51.867Z,1005.10
2018-02-14T10:54:51.886Z,1005.09
2018-02-14T10:55:51.897Z,1005.04
2018-02-14T10:56:51.910Z,1005.06
2018-02-14T10:57:51.925Z,1004.99
2018-02-14T10:58:51.942Z,1005.01
2018-02-14T10:59:51.957Z,1004.99
2018-02-14T11:00:51.971Z,1005.01
2018-02-14T11:01:51.985Z,1004.98
2018-02-14T11:02:51.996Z,1004.99
2018-02-14T11:03:52.012Z,1004.97
2018-02-14T11:04:52.032Z,1004.94
2018-02-14T11:05:52.037Z,1004.97
2018-02-14T11:06:52.058Z,1004.92
2018-02-14T11:07:52.072Z,1004.90
2018-02-14T11:08:52.090Z,1004.84
2018-02-14T11:09:52.100Z,1004.87
2018-02-14T11:10:52.119Z,1004.86
2018-02-14T11:11:52.128Z,1004.87
2018-02-14T11:12:52.143Z,1004.86
2018-02-14T11:13:52.155Z,1004.88
2018-02-14T11:14:52.178Z,1004.88
2018-02-14T11:15:52.185Z,1004.89
2018-02-14T11:16:52.199Z,1004.87
2018-02-14T11:17:52.214Z,1004.89
2018-02-14T11:18:52.227Z,1004.90
2018-02-14T11:19:52.256Z,1004.96
2018-02-14T11:20:52.344Z,1004.94
2018-02-14T11:21:52.269Z,1004.95
2018-02-14T11:22:52.292Z,1004.93
2018-02-14T11:23:52.332Z,1004.93
2018-02-14T11:24:52.340Z,1004.91
2018-02-14T11:25:52.334Z,1004.92
2018-02-14T11:26:52.351Z,1004.92
2018-02-14T11:27:52.363Z,1004.90
2018-02-14T11:28:52.380Z,1004.91
2018-02-14T11:29:52.395Z,1004.92
2018-02-14T11:30:52.416Z,1004.89
2018-02-14T11:31:52.466Z,1004.88
2018-02-14T11:32:52.442Z,1004.89
2018-02-14T11:33:52.454Z,1004.86
2018-02-14T11:34:52.472Z,1004.88
2018-02-14T11:35:52.489Z,1004.87
2018-02-14T11:36:52.504Z,1004.88
2018-02-14T11:37:52.524Z,1004.90
2018-02-14T11:38:52.531Z,1004.88
2018-02-14T11:39:52.546Z,1004.92
2018-02-14T11:40:52.562Z,1004.91
2018-02-14T11:41:52.579Z,1004.92
2018-02-14T11:42:52.590Z,1004.92
2018-02-14T11:43:52.638Z,1004.94
2018-02-14T11:44:52.620Z,1004.90
2018-02-14T11:45:52.641Z,1004.86
2018-02-14T11:46:52.649Z,1004.89
2018-02-14T11:47:52.673Z,1004.84
2018-02-14T11:48:52.690Z,1004.84
2018-02-14T11:49:52.697Z,1004.85
2018-02-14T11:50:52.716Z,1004.83
2018-02-14T11:51:52.729Z,1004.78
2018-02-14T11:52:52.749Z,1004.79
2018-02-14T11:53:52.759Z,1004.75
2018-02-14T11:54:52.769Z,1004.74
2018-02-14T11:55:52.791Z,1004.71
2018-02-14T11:56:52.809Z,1004.73
2018-02-14T11:57:52.821Z,1004.72
2018-02-14T11:58:52.837Z,1004.72
2018-02-14T11:59:52.853Z,1004.72
2018-02-14T12:00:52.867Z,1004.73
2018-02-14T12:01:52.880Z,1004.75
2018-02-14T12:02:52.910Z,1004.75
2018-02-14T12:03:52.915Z,1004.72
2018-02-14T12:04:52.932Z,1004.77
2018-02-14T12:05:52.944Z,1004.77
2018-02-14T12:06:52.961Z,1004.74
2018-02-14T12:07:52.974Z,1004.74